createdAt,value
2018-04-14T00:01:13.670Z,87.07
2018-04-14T00:03:41.185Z,87.10
2018-04-14T00:06:08.727Z,87.62
2018-04-14T00:08:36.192Z,88.15
2018-04-14T00:11:03.657Z,88.21
2018-04-14T00:16:04.786Z,87.84
2018-04-14T00:18:32.228Z,87.53
2018-04-14T00:20:59.709Z,87.31
2018-04-14T00:23:27.196Z,87.50
2018-04-14T00:25:54.746Z,87.17
2018-04-14T00:28:22.263Z,86.67
2018-04-14T00:30:49.828Z,86.59
2018-04-14T00:33:17.397Z,86.80
2018-04-14T00:35:44.897Z,86.74
2018-04-14T00:38:12.377Z,86.71
2018-04-14T00:40:39.860Z,86.94
2018-04-14T00:43:07.459Z,87.41
2018-04-14T00:45:50.019Z,88.14
2018-04-14T00:48:17.470Z,88.34
2018-04-14T00:50:45.516Z,88.40
2018-04-14T00:53:24.796Z,89.39
2018-04-14T00:55:52.302Z,89.39
2018-04-14T00:58:19.840Z,89.55
2018-04-14T01:00:47.329Z,89.81
2018-04-14T01:03:14.882Z,89.71
2018-04-14T01:05:42.350Z,89.71
2018-04-14T01:08:09.804Z,89.32
2018-04-14T01:10:37.526Z,89.68
2018-04-14T01:13:05.080Z,89.95
2018-04-14T01:15:36.333Z,89.65
2018-04-14T01:18:03.852Z,89.27
2018-04-14T01:20:31.365Z,89.33
2018-04-14T01:22:58.910Z,89.21
2018-04-14T01:25:26.538Z,89.00
2018-04-14T01:27:54.122Z,89.08
2018-04-14T01:30:21.590Z,89.04
2018-04-14T01:32:49.044Z,89.18
2018-04-14T01:35:17.221Z,88.87
2018-04-14T01:37:44.783Z,89.39
2018-04-14T01:40:12.218Z,89.54
2018-04-14T01:42:39.753Z,89.76
2018-04-14T01:45:07.248Z,90.13
2018-04-14T01:47:34.832Z,89.88
2018-04-14T01:50:02.305Z,90.15
2018-04-14T01:52:29.791Z,90.03
2018-04-14T01:54:57.273Z,90.13
2018-04-14T01:57:24.721Z,90.05
2018-04-14T01:59:52.249Z,90.83
2018-04-14T02:02:19.694Z,91.01
2018-04-14T02:04:47.121Z,91.35
2018-04-14T02:07:14.738Z,91.79
2018-04-14T02:09:42.217Z,91.98
2018-04-14T02:12:09.802Z,92.10
2018-04-14T02:14:37.386Z,92.30
2018-04-14T02:17:04.866Z,92.29
2018-04-14T02:19:32.381Z,92.15
2018-04-14T02:21:59.849Z,91.99
2018-04-14T02:24:27.375Z,91.74
2018-04-14T02:26:54.849Z,91.47
2018-04-14T02:29:22.372Z,91.43
2018-04-14T02:31:49.864Z,91.32
2018-04-14T02:34:17.337Z,91.13
2018-04-14T02:36:44.831Z,90.96
2018-04-14T02:39:12.280Z,91.00
2018-04-14T02:41:39.716Z,90.90
2018-04-14T02:44:07.242Z,90.83
2018-04-14T02:46:34.827Z,90.83
2018-04-14T02:49:02.513Z,90.73
2018-04-14T02:51:30.006Z,90.47
2018-04-14T02:53:57.537Z,90.39
2018-04-14T02:56:25.041Z,90.72
2018-04-14T02:58:52.538Z,90.91
2018-04-14T03:01:20.924Z,90.78
2018-04-14T03:03:48.410Z,90.50
2018-04-14T03:06:16.779Z,90.12
2018-04-14T03:08:44.313Z,90.04
2018-04-14T03:11:11.782Z,90.39
2018-04-14T03:13:39.272Z,90.47
2018-04-14T03:16:06.746Z,90.79
2018-04-14T03:18:34.240Z,91.67
2018-04-14T03:39:03.993Z,93.08
2018-04-14T03:41:31.488Z,93.06
2018-04-14T03:43:59.039Z,92.79
2018-04-14T03:46:26.525Z,92.59
2018-04-14T03:48:54.007Z,92.32
2018-04-14T03:51:21.478Z,92.22
2018-04-14T03:53:49.011Z,92.94
2018-04-14T03:56:16.519Z,92.97
2018-04-14T03:58:44.027Z,92.95
2018-04-14T04:01:11.508Z,92.88
2018-04-14T04:03:38.955Z,92.72
2018-04-14T04:06:06.465Z,92.51
2018-04-14T04:08:33.969Z,92.29
2018-04-14T04:11:01.505Z,92.16
2018-04-14T04:13:28.961Z,92.08
2018-04-14T04:15:56.548Z,92.07
2018-04-14T04:18:36.081Z,92.21
2018-04-14T04:21:15.380Z,92.20
2018-04-14T07:32:01.512Z,79.47
2018-04-14T07:34:30.151Z,78.99
2018-04-14T07:40:06.019Z,78.98
2018-04-14T07:42:33.638Z,77.44
2018-04-14T07:45:01.214Z,76.61
2018-04-14T07:47:28.811Z,75.38
2018-04-14T07:53:18.695Z,72.92
2018-04-14T07:55:46.217Z,73.95
2018-04-14T07:58:13.727Z,72.33
2018-04-14T08:03:18.761Z,72.67
2018-04-14T08:36:14.832Z,66.11
2018-04-14T08:38:42.360Z,65.12
2018-04-14T08:41:09.920Z,65.66
2018-04-14T08:43:37.352Z,62.34
2018-04-14T08:46:04.896Z,61.67
2018-04-14T08:48:32.446Z,60.91
2018-04-14T08:50:59.888Z,61.10
2018-04-14T08:53:32.891Z,61.16
2018-04-14T08:56:00.345Z,60.84
2018-04-14T08:58:27.885Z,59.89
2018-04-14T09:00:57.371Z,59.36
2018-04-14T09:03:24.878Z,60.62
2018-04-14T09:05:52.492Z,59.34
2018-04-14T09:08:20.210Z,56.08
2018-04-14T09:10:47.655Z,56.51
2018-04-14T09:13:15.168Z,54.62
2018-04-14T09:15:42.771Z,55.68
2018-04-14T09:18:10.205Z,54.96
2018-04-14T09:20:37.724Z,55.54
2018-04-14T09:23:05.266Z,51.75
2018-04-14T09:25:32.713Z,52.55
2018-04-14T09:28:00.197Z,53.83
2018-04-14T09:30:27.682Z,53.46
2018-04-14T09:32:55.255Z,52.10
2018-04-14T09:35:22.872Z,51.58
2018-04-14T09:37:50.384Z,50.25
2018-04-14T09:43:19.098Z,50.05
2018-04-14T09:45:46.649Z,50.13
2018-04-14T09:48:14.138Z,48.61
2018-04-14T09:50:42.138Z,47.44
2018-04-14T09:53:11.208Z,46.65
2018-04-14T09:55:38.600Z,46.24
2018-04-14T09:58:05.998Z,47.26
2018-04-14T10:00:33.400Z,46.29
2018-04-14T10:05:57.449Z,45.30
2018-04-14T10:08:24.852Z,45.54
2018-04-14T10:10:53.079Z,45.82
2018-04-14T10:13:20.485Z,47.33
2018-04-14T10:15:47.881Z,45.82
2018-04-14T13:22:37.639Z,37.17
2018-04-14T13:28:07.894Z,39.53
2018-04-14T13:30:35.345Z,36.80
2018-04-14T13:33:02.794Z,37.41
2018-04-14T13:35:30.211Z,38.12
2018-04-14T13:37:57.728Z,36.88
2018-04-14T13:40:25.160Z,37.12
2018-04-14T13:42:52.640Z,37.49
2018-04-14T13:45:20.185Z,38.11
2018-04-14T13:47:47.658Z,38.70
2018-04-14T13:56:05.593Z,38.22
2018-04-14T13:58:34.026Z,36.89
2018-04-14T14:01:01.526Z,37.64
2018-04-14T14:03:29.020Z,37.20
2018-04-14T14:05:56.552Z,37.24
2018-04-14T14:08:24.017Z,38.00
2018-04-14T14:10:52.036Z,37.49
2018-04-14T14:13:19.523Z,37.38
2018-04-14T14:15:47.060Z,36.97
2018-04-14T14:18:27.475Z,36.51
2018-04-14T14:20:54.940Z,35.29
2018-04-14T14:26:24.577Z,36.46
2018-04-14T14:28:52.137Z,38.20
2018-04-14T14:31:19.608Z,37.30
2018-04-14T14:33:47.105Z,35.88
2018-04-14T14:36:14.576Z,36.24
2018-04-14T14:38:41.968Z,35.46
2018-04-14T14:41:09.361Z,37.74
2018-04-14T15:07:50.791Z,35.90
2018-04-14T15:13:20.831Z,35.56
2018-04-14T15:15:48.204Z,36.84
2018-04-14T15:18:15.604Z,35.76
2018-04-14T15:20:42.996Z,34.03
2018-04-14T15:23:10.377Z,33.78
2018-04-14T15:25:37.772Z,33.55
2018-04-14T15:28:05.164Z,32.66
2018-04-14T15:30:32.548Z,32.71
2018-04-14T15:32:59.942Z,33.46
2018-04-14T15:35:27.330Z,34.14
2018-04-14T15:37:54.731Z,34.27
2018-04-14T15:40:22.111Z,34.64
2018-04-14T15:42:49.499Z,34.17
2018-04-14T15:45:16.893Z,34.01
2018-04-14T15:47:44.267Z,33.77
2018-04-14T15:50:11.668Z,34.76
2018-04-14T15:52:39.046Z,35.46
2018-04-14T15:55:06.432Z,35.24
2018-04-14T15:57:33.822Z,34.97
2018-04-14T16:00:01.220Z,35.10
2018-04-14T16:02:28.602Z,34.79
2018-04-14T16:04:56.001Z,35.26
2018-04-14T16:07:23.375Z,35.37
2018-04-14T16:09:50.773Z,36.47
2018-04-14T16:12:18.151Z,35.28
2018-04-14T16:14:45.598Z,35.16
2018-04-14T16:17:12.989Z,35.02
2018-04-14T16:19:40.373Z,34.84
2018-04-14T16:22:07.765Z,35.44
2018-04-14T16:24:35.157Z,34.88
2018-04-14T16:27:02.540Z,33.72
2018-04-14T16:29:29.931Z,33.54
2018-04-14T16:31:57.326Z,33.76
2018-04-14T16:34:24.742Z,34.05
2018-04-14T16:36:52.170Z,32.89
2018-04-14T16:39:19.556Z,33.13
2018-04-14T16:41:46.937Z,34.35
2018-04-14T16:44:14.336Z,36.11
2018-04-14T16:46:41.720Z,36.59
2018-04-14T16:49:09.107Z,36.69
2018-04-14T16:51:36.501Z,36.28
2018-04-14T16:54:03.888Z,36.28
2018-04-14T16:56:31.290Z,36.31
2018-04-14T16:58:58.675Z,36.57
2018-04-14T17:01:26.070Z,37.38
2018-04-14T17:03:53.461Z,38.11
2018-04-14T17:06:20.855Z,38.25
2018-04-14T17:08:48.236Z,38.62
2018-04-14T17:11:15.630Z,39.00
2018-04-14T17:13:43.010Z,39.11
2018-04-14T17:16:10.411Z,39.49
2018-04-14T17:18:37.784Z,39.52
2018-04-14T17:21:05.189Z,38.28
2018-04-14T17:26:06.424Z,38.60
2018-04-14T17:28:33.804Z,39.21
2018-04-14T17:31:01.199Z,39.59
2018-04-14T17:33:28.587Z,40.15
2018-04-14T17:35:55.968Z,40.65
2018-04-14T17:38:23.352Z,41.07
2018-04-14T17:40:50.744Z,41.32
2018-04-14T17:43:18.152Z,41.93
2018-04-14T17:45:45.550Z,42.21
2018-04-14T17:48:12.933Z,42.87
2018-04-14T17:50:40.334Z,43.16
2018-04-14T17:53:07.721Z,43.83
2018-04-14T17:55:35.110Z,44.18
2018-04-14T17:58:02.514Z,44.46
2018-04-14T18:00:29.897Z,45.26
2018-04-14T18:02:57.284Z,45.67
2018-04-14T18:05:24.681Z,46.04
2018-04-14T18:07:52.081Z,46.09
2018-04-14T18:10:19.449Z,46.77
2018-04-14T18:12:46.857Z,47.68
2018-04-14T18:15:14.246Z,48.14
2018-04-14T18:17:41.633Z,48.15
2018-04-14T18:20:09.012Z,48.81
2018-04-14T18:22:36.405Z,49.50
2018-04-14T18:25:03.782Z,49.77
2018-04-14T18:27:31.183Z,49.99
2018-04-14T18:29:58.568Z,50.14
2018-04-14T18:32:25.958Z,50.47
2018-04-14T18:34:53.348Z,50.69
2018-04-14T18:37:20.749Z,50.98
2018-04-14T18:39:48.130Z,51.47
2018-04-14T18:42:15.517Z,51.00
2018-04-14T18:44:42.946Z,51.54
2018-04-14T18:47:10.293Z,51.49
2018-04-14T18:49:37.673Z,51.75
2018-04-14T18:52:05.072Z,51.56
2018-04-14T18:54:32.463Z,51.56
2018-04-14T18:56:59.960Z,52.10
2018-04-14T18:59:27.326Z,52.48
2018-04-14T19:01:54.794Z,52.72
2018-04-14T19:04:22.259Z,53.18
2018-04-14T19:06:49.782Z,52.98
2018-04-14T19:09:17.215Z,52.88
2018-04-14T19:11:44.725Z,53.13
2018-04-14T19:14:12.230Z,53.34
2018-04-14T19:16:39.673Z,53.27
2018-04-14T19:19:07.288Z,53.58
2018-04-14T19:21:34.813Z,53.47
2018-04-14T19:24:02.373Z,53.81
2018-04-14T19:26:30.188Z,54.12
2018-04-14T19:28:57.702Z,54.33
2018-04-14T19:31:25.177Z,54.48
2018-04-14T19:33:52.791Z,55.26
2018-04-14T19:36:20.244Z,55.91
2018-04-14T19:38:47.645Z,56.09
2018-04-14T19:41:15.103Z,56.49
2018-04-14T19:43:42.505Z,56.26
2018-04-14T19:46:10.258Z,56.18
2018-04-14T19:48:37.834Z,56.82
2018-04-14T19:51:05.324Z,57.63
2018-04-14T19:53:32.833Z,57.57
2018-04-14T19:56:00.262Z,57.98
2018-04-14T19:58:27.853Z,58.78
2018-04-14T20:00:55.453Z,58.89
2018-04-14T20:03:22.922Z,58.74
2018-04-14T20:05:51.202Z,58.75
2018-04-14T20:08:18.669Z,57.81
2018-04-14T20:10:46.595Z,57.99
2018-04-14T20:13:14.136Z,57.38
2018-04-14T20:15:41.613Z,57.41
2018-04-14T20:18:09.155Z,57.46
2018-04-14T20:20:37.896Z,57.68
2018-04-14T20:23:05.341Z,57.51
2018-04-14T20:25:32.809Z,58.55
2018-04-14T20:28:00.406Z,59.28
2018-04-14T20:30:29.052Z,58.82
2018-04-14T20:32:57.090Z,59.87
2018-04-14T20:35:25.533Z,60.53
2018-04-14T20:37:52.953Z,61.43
2018-04-14T20:40:20.451Z,62.36
2018-04-14T20:42:47.924Z,61.88
2018-04-14T20:45:15.429Z,62.20
2018-04-14T20:47:42.921Z,62.13
2018-04-14T20:50:10.374Z,62.47
2018-04-14T20:55:11.613Z,61.11
2018-04-14T20:57:39.105Z,61.15
2018-04-14T21:00:06.505Z,61.28
2018-04-14T21:02:33.920Z,62.18
2018-04-14T21:05:01.361Z,61.90
2018-04-14T21:07:29.742Z,60.89
2018-04-14T21:09:57.248Z,62.02
2018-04-14T21:12:24.804Z,62.76
2018-04-14T21:14:52.245Z,61.22
2018-04-14T21:17:19.771Z,61.62
2018-04-14T21:19:47.793Z,61.95
2018-04-14T21:22:15.354Z,61.01
2018-04-14T21:24:42.777Z,62.44
2018-04-14T21:27:11.277Z,63.42
2018-04-14T21:29:39.021Z,64.70
2018-04-14T21:32:08.146Z,65.59
2018-04-14T21:43:43.420Z,64.74
2018-04-14T21:46:12.420Z,65.59
2018-04-14T21:48:52.696Z,65.78
2018-04-14T21:51:20.198Z,67.21
2018-04-14T21:53:47.947Z,66.53
2018-04-14T21:56:15.585Z,67.25
2018-04-14T21:58:43.111Z,66.95
2018-04-14T22:02:41.381Z,68.00
2018-04-14T22:05:09.019Z,69.55
2018-04-14T22:07:37.004Z,70.56
2018-04-14T22:12:39.798Z,71.18
2018-04-14T22:15:07.176Z,71.37
2018-04-14T22:17:34.719Z,71.88
2018-04-14T22:20:02.232Z,71.99
2018-04-14T22:22:30.470Z,71.99
2018-04-14T22:24:57.960Z,72.51
2018-04-14T22:27:25.397Z,72.56
2018-04-14T22:29:52.901Z,73.05
2018-04-14T22:32:20.934Z,73.67
2018-04-14T22:34:48.552Z,73.96
2018-04-14T22:37:16.137Z,74.43
2018-04-14T22:39:43.625Z,74.58
2018-04-14T22:42:11.107Z,74.38
2018-04-14T22:44:38.630Z,74.11
2018-04-14T22:47:06.044Z,74.98
2018-04-14T22:49:33.552Z,75.33
2018-04-14T22:52:01.857Z,74.89
2018-04-14T22:54:29.324Z,74.97
2018-04-14T22:56:56.839Z,75.34
2018-04-14T22:59:24.332Z,75.87
2018-04-14T23:01:51.834Z,74.83
2018-04-14T23:04:19.313Z,73.79
2018-04-14T23:09:20.427Z,72.43
2018-04-14T23:11:47.920Z,72.46
2018-04-14T23:14:15.381Z,72.29
2018-04-14T23:16:42.930Z,73.59
2018-04-14T23:19:10.397Z,73.60
2018-04-14T23:21:42.744Z,74.91
2018-04-14T23:24:10.294Z,75.44
2018-04-14T23:26:37.777Z,76.46
2018-04-14T23:29:05.272Z,76.79
2018-04-14T23:31:32.839Z,77.09
2018-04-14T23:34:00.273Z,77.52
2018-04-14T23:36:27.826Z,77.80
2018-04-14T23:38:55.797Z,77.51
2018-04-14T23:41:23.293Z,77.16
2018-04-14T23:43:50.756Z,77.09
2018-04-14T23:46:18.316Z,77.87
2018-04-14T23:48:45.742Z,79.44
2018-04-14T23:51:13.287Z,80.25
2018-04-14T23:53:40.764Z,80.17
2018-04-14T23:56:08.229Z,79.75
2018-04-14T23:58:35.801Z,79.54
